Time;durP1;ratioP1;P1;durP2;ratioP2;P2;SDS_P1;SDS_P2;PMS_P1;PMS_P2;Temp;Humidity;BMP_temperature;BMP_pressure;BME280_temperature;BME280_humidity;BME280_pressure;Samples;Min_cycle;Max_cycle;Signal;HPM_P1;HPM_P2
2022/10/20 00:03:36;;;;;;;5.18;4.68;;;;;;;;;;10493077;28;20260;-59
2022/10/20 00:08:37;;;;;;;5.90;5.20;;;;;;;;;;10493898;28;20380;-60
2022/10/20 00:13:38;;;;;;;8.80;5.32;;;;;;;;;;10487217;28;142846;-59
2022/10/20 00:18:39;;;;;;;6.68;5.38;;;;;;;;;;10495160;28;20072;-57
2022/10/20 00:23:39;;;;;;;8.07;5.35;;;;;;;;;;10495395;28;20029;-48
2022/10/20 00:28:39;;;;;;;6.37;4.83;;;;;;;;;;10494567;28;20268;-52
2022/10/20 00:33:40;;;;;;;9.48;5.28;;;;;;;;;;10494480;28;20039;-56
2022/10/20 00:38:40;;;;;;;5.93;4.63;;;;;;;;;;10488216;28;20081;-50
2022/10/20 00:43:48;;;;;;;7.18;5.13;;;;;;;;;;10487321;28;21186;-58
2022/10/20 00:48:51;;;;;;;9.47;5.00;;;;;;;;;;10486737;28;20029;-57
2022/10/20 00:53:53;;;;;;;5.90;5.25;;;;;;;;;;10493089;28;20041;-57
2022/10/20 00:58:54;;;;;;;5.30;4.60;;;;;;;;;;10492892;28;20028;-57
2022/10/20 01:03:54;;;;;;;6.43;5.05;;;;;;;;;;10492652;28;20021;-59
2022/10/20 01:08:54;;;;;;;5.83;4.67;;;;;;;;;;10492630;28;20024;-57
2022/10/20 01:13:58;;;;;;;8.57;4.43;;;;;;;;;;10491719;28;20037;-61
2022/10/20 01:19:17;;;;;;;6.90;4.72;;;;;;;;;;10492052;28;20067;-59
2022/10/20 01:24:36;;;;;;;6.20;4.68;;;;;;;;;;10492371;28;20036;-58
2022/10/20 01:29:56;;;;;;;5.30;4.72;;;;;;;;;;10491971;28;20029;-55
2022/10/20 01:34:56;;;;;;;5.15;4.63;;;;;;;;;;10491502;28;20029;-47
2022/10/20 01:40:01;;;;;;;5.60;4.43;;;;;;;;;;10491389;28;20029;-47
2022/10/20 01:45:02;;;;;;;6.97;4.30;;;;;;;;;;10492399;28;20036;-47
2022/10/20 01:50:04;;;;;;;7.22;4.53;;;;;;;;;;10492288;28;20029;-47
2022/10/20 01:55:10;;;;;;;4.93;4.35;;;;;;;;;;10492187;28;20025;-47
2022/10/20 02:00:11;;;;;;;6.40;4.57;;;;;;;;;;10491583;28;20102;-46
2022/10/20 02:05:11;;;;;;;6.05;4.20;;;;;;;;;;10491388;28;20111;-46
2022/10/20 02:10:21;;;;;;;5.28;4.43;;;;;;;;;;10491307;28;20107;-47
2022/10/20 02:15:24;;;;;;;7.20;5.13;;;;;;;;;;10445927;28;20556;-47
2022/10/20 02:20:24;;;;;;;7.13;4.60;;;;;;;;;;10450442;28;20114;-47
2022/10/20 02:25:26;;;;;;;5.00;4.10;;;;;;;;;;10449673;28;20087;-49
2022/10/20 02:30:27;;;;;;;6.55;4.43;;;;;;;;;;10450238;28;20478;-47
2022/10/20 02:35:31;;;;;;;5.45;4.45;;;;;;;;;;10449393;28;20045;-47
2022/10/20 02:40:31;;;;;;;5.82;4.53;;;;;;;;;;10449815;28;20085;-47
2022/10/20 02:45:31;;;;;;;5.13;4.63;;;;;;;;;;10449570;28;20104;-48
2022/10/20 02:50:32;;;;;;;5.10;4.07;;;;;;;;;;10449346;28;20032;-48
2022/10/20 02:55:32;;;;;;;5.38;4.50;;;;;;;;;;10448924;28;20041;-47
2022/10/20 03:00:32;;;;;;;5.53;4.60;;;;;;;;;;10449616;28;20489;-48
2022/10/20 03:05:37;;;;;;;6.40;4.15;;;;;;;;;;10448727;28;20374;-47
2022/10/20 03:10:37;;;;;;;5.70;4.22;;;;;;;;;;10448868;28;20056;-48
2022/10/20 03:15:37;;;;;;;6.20;4.53;;;;;;;;;;10482226;28;20166;-48
2022/10/20 03:20:38;;;;;;;6.38;4.30;;;;;;;;;;10490511;28;20045;-49
2022/10/20 03:25:38;;;;;;;5.60;3.90;;;;;;;;;;10495856;28;20032;-50
2022/10/20 03:30:41;;;;;;;5.60;4.28;;;;;;;;;;10497417;28;20021;-48
2022/10/20 03:35:41;;;;;;;6.03;4.50;;;;;;;;;;10497386;28;20112;-49
2022/10/20 03:40:41;;;;;;;5.18;4.18;;;;;;;;;;10497195;28;20103;-48
2022/10/20 03:45:42;;;;;;;8.38;4.10;;;;;;;;;;10494568;28;20038;-51
2022/10/20 03:50:42;;;;;;;4.50;4.10;;;;;;;;;;10494779;28;20028;-49
2022/10/20 03:55:42;;;;;;;4.70;4.17;;;;;;;;;;10495369;28;20043;-49
2022/10/20 04:00:43;;;;;;;4.15;3.72;;;;;;;;;;10494508;28;20037;-48
2022/10/20 04:05:43;;;;;;;4.28;3.88;;;;;;;;;;10495945;28;20024;-50
2022/10/20 04:10:43;;;;;;;4.68;4.07;;;;;;;;;;10496261;28;20059;-51
2022/10/20 04:15:43;;;;;;;5.47;4.30;;;;;;;;;;10495343;28;20041;-48
2022/10/20 04:20:44;;;;;;;5.05;3.80;;;;;;;;;;10495820;28;20039;-50
2022/10/20 04:25:46;;;;;;;4.28;3.80;;;;;;;;;;10495001;28;20021;-58
2022/10/20 04:30:47;;;;;;;5.10;4.28;;;;;;;;;;10495335;28;20162;-57
2022/10/20 04:35:48;;;;;;;4.72;4.28;;;;;;;;;;10493850;28;20159;-57
2022/10/20 04:40:55;;;;;;;4.95;3.97;;;;;;;;;;10494614;28;20039;-55
2022/10/20 04:45:58;;;;;;;5.68;4.13;;;;;;;;;;10494258;28;20479;-57
2022/10/20 04:51:01;;;;;;;5.53;3.70;;;;;;;;;;10494525;28;20137;-60
2022/10/20 04:56:02;;;;;;;3.58;3.20;;;;;;;;;;10493792;28;20047;-59
2022/10/20 05:01:04;;;;;;;5.20;4.00;;;;;;;;;;10493027;28;20029;-60
2022/10/20 05:06:12;;;;;;;4.38;3.97;;;;;;;;;;10493331;28;20035;-58
2022/10/20 05:11:13;;;;;;;11.90;3.88;;;;;;;;;;10493091;28;20537;-54
2022/10/20 05:16:16;;;;;;;4.00;3.65;;;;;;;;;;10492808;28;20090;-59
2022/10/20 05:21:17;;;;;;;4.95;4.45;;;;;;;;;;10493043;28;20036;-50
2022/10/20 05:26:18;;;;;;;9.20;4.07;;;;;;;;;;10491793;28;20472;-49
2022/10/20 05:31:20;;;;;;;8.10;4.33;;;;;;;;;;10491301;28;20016;-51
2022/10/20 05:36:25;;;;;;;7.18;4.50;;;;;;;;;;10491768;28;20502;-47
2022/10/20 05:41:27;;;;;;;5.25;4.57;;;;;;;;;;10492367;28;20260;-62
2022/10/20 05:46:29;;;;;;;8.60;4.70;;;;;;;;;;10491621;28;20036;-63
2022/10/20 05:51:30;;;;;;;7.05;5.05;;;;;;;;;;10491150;28;20036;-59
2022/10/20 05:56:32;;;;;;;9.10;5.10;;;;;;;;;;10492047;28;20063;-48
2022/10/20 06:01:46;;;;;;;6.53;5.35;;;;;;;;;;10490969;28;20539;-51
2022/10/20 06:06:47;;;;;;;5.60;5.00;;;;;;;;;;10491558;28;20473;-51
2022/10/20 06:11:48;;;;;;;8.88;5.65;;;;;;;;;;10491443;28;20096;-52
2022/10/20 06:16:49;;;;;;;14.93;5.70;;;;;;;;;;10491313;28;20119;-55
2022/10/20 06:21:50;;;;;;;9.45;5.63;;;;;;;;;;10490483;28;20040;-52
2022/10/20 06:26:50;;;;;;;13.63;5.90;;;;;;;;;;10490962;28;20032;-50
2022/10/20 06:31:51;;;;;;;8.27;5.33;;;;;;;;;;10490147;28;20029;-54
2022/10/20 06:36:51;;;;;;;10.25;6.03;;;;;;;;;;10490793;28;20399;-47
2022/10/20 06:41:52;;;;;;;14.30;6.30;;;;;;;;;;10489857;28;20028;-54
2022/10/20 06:46:53;;;;;;;10.00;6.40;;;;;;;;;;10491153;28;20509;-53
2022/10/20 06:51:53;;;;;;;9.55;5.72;;;;;;;;;;10490285;28;20111;-54
2022/10/20 06:56:53;;;;;;;8.65;5.32;;;;;;;;;;10491564;28;20488;-47
2022/10/20 07:01:54;;;;;;;9.60;5.47;;;;;;;;;;10498292;28;20487;-47
2022/10/20 07:06:54;;;;;;;12.32;5.88;;;;;;;;;;10498605;28;20396;-55
2022/10/20 07:11:54;;;;;;;7.57;5.70;;;;;;;;;;10498252;28;20033;-48
2022/10/20 07:16:55;;;;;;;9.07;6.13;;;;;;;;;;10497876;28;20028;-47
2022/10/20 07:21:55;;;;;;;7.57;5.70;;;;;;;;;;10497963;28;20029;-47
2022/10/20 07:26:55;;;;;;;8.38;5.70;;;;;;;;;;10497360;28;20495;-48
2022/10/20 07:31:55;;;;;;;8.30;5.63;;;;;;;;;;10497310;28;20029;-48
2022/10/20 07:36:56;;;;;;;11.75;5.95;;;;;;;;;;10497776;28;20317;-47
2022/10/20 07:41:56;;;;;;;11.20;5.25;;;;;;;;;;10497236;28;20033;-49
2022/10/20 07:46:57;;;;;;;9.70;4.93;;;;;;;;;;10496888;28;20495;-48
2022/10/20 07:51:57;;;;;;;11.02;5.60;;;;;;;;;;10496573;28;20111;-48
2022/10/20 07:56:57;;;;;;;9.55;5.43;;;;;;;;;;10496520;28;20025;-52
2022/10/20 08:01:57;;;;;;;8.73;5.40;;;;;;;;;;10496256;28;20439;-51
2022/10/20 08:06:58;;;;;;;12.38;5.53;;;;;;;;;;10496334;28;20158;-49
2022/10/20 08:11:59;;;;;;;11.45;5.90;;;;;;;;;;10496192;28;20166;-48
2022/10/20 08:17:00;;;;;;;8.48;5.35;;;;;;;;;;10495434;28;20111;-53
2022/10/20 08:22:00;;;;;;;8.90;5.53;;;;;;;;;;10495689;28;20028;-51
2022/10/20 08:27:01;;;;;;;11.90;5.55;;;;;;;;;;10495563;28;20464;-49
2022/10/20 08:32:01;;;;;;;7.25;5.40;;;;;;;;;;10494575;28;20501;-53
2022/10/20 08:37:01;;;;;;;10.53;5.43;;;;;;;;;;10494085;28;20048;-54
2022/10/20 08:42:02;;;;;;;10.27;5.35;;;;;;;;;;10494156;28;20025;-58
2022/10/20 08:47:04;;;;;;;7.88;5.60;;;;;;;;;;10494349;28;20102;-53
2022/10/20 08:52:08;;;;;;;5.75;4.80;;;;;;;;;;10494514;28;20033;-55
2022/10/20 08:57:20;;;;;;;8.60;5.15;;;;;;;;;;10493598;28;20115;-49
2022/10/20 09:02:21;;;;;;;8.55;5.13;;;;;;;;;;10493120;28;20036;-49
2022/10/20 09:07:32;;;;;;;8.82;5.03;;;;;;;;;;10493587;28;20445;-55
2022/10/20 09:12:33;;;;;;;12.02;5.25;;;;;;;;;;10493612;28;20127;-52
2022/10/20 09:17:33;;;;;;;7.90;5.30;;;;;;;;;;10492886;28;20116;-51
2022/10/20 09:22:34;;;;;;;9.20;5.23;;;;;;;;;;10491999;28;20098;-55
2022/10/20 09:27:38;;;;;;;9.73;5.93;;;;;;;;;;10491904;28;20031;-48
2022/10/20 09:32:39;;;;;;;8.02;5.25;;;;;;;;;;10492455;28;20197;-49
2022/10/20 09:37:40;;;;;;;8.00;4.82;;;;;;;;;;10492169;28;20231;-54
2022/10/20 09:42:43;;;;;;;7.50;5.07;;;;;;;;;;10491609;28;20028;-49
2022/10/20 09:47:45;;;;;;;7.82;5.22;;;;;;;;;;10491384;28;20028;-55
2022/10/20 09:52:46;;;;;;;5.68;5.07;;;;;;;;;;10490246;28;20034;-49
2022/10/20 09:57:47;;;;;;;9.32;5.55;;;;;;;;;;10491220;28;20029;-50
2022/10/20 10:02:47;;;;;;;6.72;5.20;;;;;;;;;;10490893;28;20025;-50
2022/10/20 10:07:58;;;;;;;7.87;5.20;;;;;;;;;;10491216;28;20048;-48
2022/10/20 10:12:59;;;;;;;14.20;5.35;;;;;;;;;;10490818;28;20044;-50
2022/10/20 10:18:10;;;;;;;11.05;5.70;;;;;;;;;;10489010;28;20519;-53
2022/10/20 10:23:17;;;;;;;7.30;5.47;;;;;;;;;;10488811;28;20039;-49
2022/10/20 10:28:29;;;;;;;6.47;5.35;;;;;;;;;;10489270;28;20413;-50
2022/10/20 10:33:31;;;;;;;10.30;5.82;;;;;;;;;;10496634;28;20033;-50
2022/10/20 10:38:32;;;;;;;7.13;5.38;;;;;;;;;;10499785;28;20037;-50
2022/10/20 10:43:35;;;;;;;7.68;5.95;;;;;;;;;;10498375;28;20024;-52
2022/10/20 10:48:35;;;;;;;10.20;5.82;;;;;;;;;;10497098;28;20025;-51
2022/10/20 10:53:53;;;;;;;7.30;5.40;;;;;;;;;;10496693;28;20048;-51
2022/10/20 10:58:57;;;;;;;8.50;5.70;;;;;;;;;;10496689;28;20054;-48
2022/10/20 11:04:15;;;;;;;8.40;5.10;;;;;;;;;;10496529;28;20429;-54
2022/10/20 11:09:22;;;;;;;7.75;5.65;;;;;;;;;;10497816;28;20024;-49
2022/10/20 11:14:28;;;;;;;6.72;5.35;;;;;;;;;;10498163;28;20048;-50
2022/10/20 11:19:36;;;;;;;8.10;5.88;;;;;;;;;;10497741;28;20028;-52
2022/10/20 11:24:39;;;;;;;8.18;5.90;;;;;;;;;;10498159;28;20020;-51
2022/10/20 11:29:50;;;;;;;6.90;5.63;;;;;;;;;;10497294;28;20484;-54
2022/10/20 11:34:59;;;;;;;12.35;6.72;;;;;;;;;;10497471;28;20024;-51
2022/10/20 11:40:03;;;;;;;9.18;6.18;;;;;;;;;;10496700;28;20032;-50
2022/10/20 11:45:14;;;;;;;11.60;6.50;;;;;;;;;;10496214;28;20025;-49
2022/10/20 11:50:16;;;;;;;10.50;6.40;;;;;;;;;;10496809;28;20027;-49
2022/10/20 11:55:35;;;;;;;52.97;18.38;;;;;;;;;;10497109;28;20028;-48
2022/10/20 12:00:47;;;;;;;63.22;21.00;;;;;;;;;;10496454;28;20025;-49
2022/10/20 12:06:06;;;;;;;62.70;21.50;;;;;;;;;;10496388;28;20028;-47
2022/10/20 12:11:15;;;;;;;49.10;19.50;;;;;;;;;;10495543;28;20102;-52
2022/10/20 12:16:34;;;;;;;55.72;17.48;;;;;;;;;;10494571;28;20037;-54
2022/10/20 12:21:54;;;;;;;41.72;15.90;;;;;;;;;;10477305;28;20110;-51
2022/10/20 12:27:00;;;;;;;43.35;15.75;;;;;;;;;;10495086;28;20036;-57
2022/10/20 12:32:20;;;;;;;42.90;16.38;;;;;;;;;;10493824;28;20248;-55
2022/10/20 12:37:23;;;;;;;32.08;13.80;;;;;;;;;;10494216;28;20063;-51
2022/10/20 12:42:30;;;;;;;37.90;13.55;;;;;;;;;;10493613;28;20052;-46
2022/10/20 12:47:32;;;;;;;29.17;13.25;;;;;;;;;;10492921;28;20037;-49
2022/10/20 12:52:33;;;;;;;49.83;13.68;;;;;;;;;;10493887;28;20024;-49
2022/10/20 12:57:40;;;;;;;47.70;12.75;;;;;;;;;;10487052;28;20020;-53
2022/10/20 13:02:59;;;;;;;50.90;13.32;;;;;;;;;;10492557;28;20108;-63
2022/10/20 13:07:59;;;;;;;36.90;12.40;;;;;;;;;;10492327;28;20029;-54
2022/10/20 13:13:00;;;;;;;32.15;11.38;;;;;;;;;;10491943;28;20102;-48
2022/10/20 13:18:12;;;;;;;43.35;12.10;;;;;;;;;;10491839;28;20243;-51
2022/10/20 13:23:14;;;;;;;33.53;12.27;;;;;;;;;;10491991;28;20074;-55
2022/10/20 13:28:17;;;;;;;35.28;12.70;;;;;;;;;;10490823;28;20055;-60
2022/10/20 13:33:22;;;;;;;31.95;12.32;;;;;;;;;;10491843;28;20040;-59
2022/10/20 13:38:25;;;;;;;32.08;11.23;;;;;;;;;;10492092;28;20045;-67
2022/10/20 13:43:30;;;;;;;31.60;11.95;;;;;;;;;;10491483;28;20112;-53
2022/10/20 13:48:49;;;;;;;23.48;10.45;;;;;;;;;;10491119;28;20384;-58
2022/10/20 13:53:54;;;;;;;39.85;11.50;;;;;;;;;;10489429;28;20029;-59
2022/10/20 13:59:23;;;;;;;29.30;11.05;;;;;;;;;;10488377;28;20024;-51
2022/10/20 14:04:24;;;;;;;33.45;11.65;;;;;;;;;;10468682;28;20036;-59
2022/10/20 14:09:24;;;;;;;28.67;10.32;;;;;;;;;;10490372;28;20029;-51
2022/10/20 14:14:29;;;;;;;30.08;11.63;;;;;;;;;;10490441;28;20048;-53
2022/10/20 14:19:32;;;;;;;29.63;11.15;;;;;;;;;;10490619;28;20099;-64
2022/10/20 14:24:39;;;;;;;28.15;10.80;;;;;;;;;;10491786;28;20074;-53
2022/10/20 14:29:39;;;;;;;34.33;11.05;;;;;;;;;;10489932;28;20017;-50
2022/10/20 14:34:52;;;;;;;21.77;9.77;;;;;;;;;;10489542;28;20016;-61
2022/10/20 14:39:52;;;;;;;30.15;10.23;;;;;;;;;;10490528;28;20383;-66
2022/10/20 14:44:55;;;;;;;28.25;10.52;;;;;;;;;;10490343;28;20021;-65
2022/10/20 14:49:56;;;;;;;36.10;10.07;;;;;;;;;;10489919;28;20404;-64
2022/10/20 14:54:56;;;;;;;26.07;11.00;;;;;;;;;;10490559;28;20036;-64
2022/10/20 15:00:03;;;;;;;28.30;10.32;;;;;;;;;;10489321;28;20033;-67
2022/10/20 15:05:23;;;;;;;21.98;9.27;;;;;;;;;;10490607;28;20036;-60
2022/10/20 15:10:24;;;;;;;18.30;9.02;;;;;;;;;;10490471;28;20016;-64
2022/10/20 15:15:26;;;;;;;20.25;9.45;;;;;;;;;;10490324;28;20101;-62
2022/10/20 15:20:32;;;;;;;24.80;10.90;;;;;;;;;;10495147;28;20071;-66
2022/10/20 15:25:47;;;;;;;22.02;8.90;;;;;;;;;;10497752;28;20513;-63
2022/10/20 15:30:47;;;;;;;21.42;9.27;;;;;;;;;;10498176;28;20031;-58
2022/10/20 15:35:49;;;;;;;21.67;8.83;;;;;;;;;;10497295;28;20111;-55
2022/10/20 15:40:49;;;;;;;18.70;9.20;;;;;;;;;;10497535;28;20473;-56
2022/10/20 15:45:53;;;;;;;16.67;7.75;;;;;;;;;;10497220;28;20040;-59
2022/10/20 15:50:55;;;;;;;20.15;8.73;;;;;;;;;;10496866;28;20472;-49
2022/10/20 15:55:55;;;;;;;16.92;8.15;;;;;;;;;;10496547;28;20448;-56
2022/10/20 16:00:55;;;;;;;20.00;8.40;;;;;;;;;;10496453;28;20021;-48
2022/10/20 16:05:56;;;;;;;16.33;8.88;;;;;;;;;;10496036;28;20024;-51
2022/10/20 16:10:56;;;;;;;15.55;8.15;;;;;;;;;;10496490;28;20487;-56
2022/10/20 16:15:56;;;;;;;16.10;7.38;;;;;;;;;;10495851;28;20480;-53
2022/10/20 16:20:57;;;;;;;18.13;8.82;;;;;;;;;;10496140;28;20028;-55
2022/10/20 16:25:57;;;;;;;20.75;8.27;;;;;;;;;;10495334;28;20035;-61
2022/10/20 16:31:05;;;;;;;13.73;7.32;;;;;;;;;;10495351;28;20039;-57
2022/10/20 16:36:06;;;;;;;14.87;7.20;;;;;;;;;;10495323;28;20021;-64
2022/10/20 16:41:09;;;;;;;16.70;9.10;;;;;;;;;;10494656;28;20029;-63
2022/10/20 16:46:09;;;;;;;14.35;7.95;;;;;;;;;;10494357;28;20431;-67
2022/10/20 16:51:10;;;;;;;21.48;8.50;;;;;;;;;;10494108;28;20102;-67
2022/10/20 16:56:11;;;;;;;15.98;7.75;;;;;;;;;;10494421;28;20470;-67
2022/10/20 17:01:12;;;;;;;13.52;8.05;;;;;;;;;;10494004;28;20036;-56
2022/10/20 17:06:12;;;;;;;15.45;7.55;;;;;;;;;;10494328;28;20364;-66
2022/10/20 17:11:14;;;;;;;13.63;6.88;;;;;;;;;;10494120;28;20348;-65
2022/10/20 17:16:16;;;;;;;15.75;7.57;;;;;;;;;;10495161;28;20044;-62
2022/10/20 17:21:16;;;;;;;12.88;7.45;;;;;;;;;;10494107;28;20025;-62
2022/10/20 17:26:18;;;;;;;13.43;7.38;;;;;;;;;;10493162;28;20028;-63
2022/10/20 17:31:18;;;;;;;16.48;8.30;;;;;;;;;;10492701;28;20033;-66
2022/10/20 17:36:24;;;;;;;16.70;7.37;;;;;;;;;;10493158;28;20050;-67
2022/10/20 17:41:25;;;;;;;13.48;7.45;;;;;;;;;;10492473;28;20047;-64
2022/10/20 17:46:25;;;;;;;15.63;7.90;;;;;;;;;;10492539;28;20369;-67
2022/10/20 17:51:26;;;;;;;13.13;7.30;;;;;;;;;;10492051;28;20033;-67
2022/10/20 17:56:29;;;;;;;15.65;7.28;;;;;;;;;;10491794;28;20052;-66
2022/10/20 18:01:31;;;;;;;12.77;7.38;;;;;;;;;;10491506;28;20028;-58
2022/10/20 18:06:32;;;;;;;14.05;7.63;;;;;;;;;;10491850;28;20283;-59
2022/10/20 18:11:33;;;;;;;13.88;7.15;;;;;;;;;;10491284;28;20359;-63
2022/10/20 18:16:35;;;;;;;14.52;7.20;;;;;;;;;;10492424;28;20380;-65
2022/10/20 18:21:36;;;;;;;15.60;7.53;;;;;;;;;;10491739;28;20060;-63
2022/10/20 18:26:36;;;;;;;17.70;6.53;;;;;;;;;;10491109;28;20427;-65
2022/10/20 18:31:37;;;;;;;13.50;7.33;;;;;;;;;;10491941;28;20028;-47
2022/10/20 18:36:38;;;;;;;10.48;6.72;;;;;;;;;;10473071;28;20024;-48
2022/10/20 18:41:39;;;;;;;12.95;6.25;;;;;;;;;;10490976;28;20468;-47
2022/10/20 18:46:40;;;;;;;16.55;7.57;;;;;;;;;;10491103;28;20029;-47
2022/10/20 18:51:40;;;;;;;14.32;7.13;;;;;;;;;;10491432;28;20024;-47
2022/10/20 18:56:41;;;;;;;12.93;7.17;;;;;;;;;;10498588;28;20414;-48
2022/10/20 19:01:42;;;;;;;11.63;7.07;;;;;;;;;;10498968;28;20091;-49
2022/10/20 19:06:43;;;;;;;14.57;6.67;;;;;;;;;;10499310;28;20093;-51
2022/10/20 19:11:44;;;;;;;14.73;7.05;;;;;;;;;;10498735;28;20082;-47
2022/10/20 19:16:45;;;;;;;11.30;6.07;;;;;;;;;;10497708;28;20447;-48
2022/10/20 19:21:46;;;;;;;14.20;6.55;;;;;;;;;;10496360;28;20557;-48
2022/10/20 19:26:47;;;;;;;12.67;6.70;;;;;;;;;;10497463;28;20029;-48
2022/10/20 19:31:49;;;;;;;11.00;6.65;;;;;;;;;;10496360;28;20192;-48
2022/10/20 19:36:50;;;;;;;14.23;7.03;;;;;;;;;;10497079;28;20112;-50
2022/10/20 19:41:50;;;;;;;11.50;6.23;;;;;;;;;;10496935;28;20120;-48
2022/10/20 19:46:51;;;;;;;12.43;6.65;;;;;;;;;;10498164;28;20469;-57
2022/10/20 19:51:51;;;;;;;12.38;7.07;;;;;;;;;;10478773;28;20025;-48
2022/10/20 19:56:52;;;;;;;10.07;6.00;;;;;;;;;;10496806;28;20033;-49
2022/10/20 20:01:52;;;;;;;14.07;7.30;;;;;;;;;;10496705;28;20028;-48
2022/10/20 20:06:55;;;;;;;10.70;6.82;;;;;;;;;;10495989;28;20090;-48
2022/10/20 20:11:56;;;;;;;12.65;7.07;;;;;;;;;;10496072;28;20028;-47
2022/10/20 20:16:56;;;;;;;12.35;6.85;;;;;;;;;;10477846;28;20037;-48
2022/10/20 20:21:56;;;;;;;11.45;6.90;;;;;;;;;;10496290;28;20037;-48
2022/10/20 20:26:57;;;;;;;12.75;6.30;;;;;;;;;;10496111;28;20115;-51
2022/10/20 20:31:57;;;;;;;13.18;6.57;;;;;;;;;;10495451;28;20031;-49
2022/10/20 20:36:57;;;;;;;9.57;6.38;;;;;;;;;;10495477;28;20020;-49
2022/10/20 20:41:58;;;;;;;16.13;6.83;;;;;;;;;;10495466;28;20032;-48
2022/10/20 20:46:58;;;;;;;15.48;6.40;;;;;;;;;;10495708;28;20588;-47
2022/10/20 20:51:58;;;;;;;9.48;5.97;;;;;;;;;;10477278;28;20032;-48
2022/10/20 20:56:59;;;;;;;13.93;5.75;;;;;;;;;;10494360;28;20073;-47
2022/10/20 21:01:59;;;;;;;11.23;5.97;;;;;;;;;;10494763;28;20024;-47
2022/10/20 21:06:59;;;;;;;10.63;6.30;;;;;;;;;;10494062;28;20055;-48
2022/10/20 21:12:00;;;;;;;9.73;6.32;;;;;;;;;;10493326;28;20035;-48
2022/10/20 21:17:00;;;;;;;11.98;6.47;;;;;;;;;;10492058;28;20037;-48
2022/10/20 21:22:01;;;;;;;8.97;5.50;;;;;;;;;;10492675;28;20032;-57
2022/10/20 21:27:01;;;;;;;11.88;5.93;;;;;;;;;;10491985;28;20044;-52
2022/10/20 21:32:01;;;;;;;6.97;5.57;;;;;;;;;;10491908;28;20468;-58
2022/10/20 21:37:02;;;;;;;13.20;5.75;;;;;;;;;;10492390;28;20024;-52
2022/10/20 21:42:02;;;;;;;10.27;6.18;;;;;;;;;;10472316;28;20070;-49
2022/10/20 21:47:02;;;;;;;12.10;6.07;;;;;;;;;;10488527;28;20444;-48
2022/10/20 21:52:03;;;;;;;14.25;5.28;;;;;;;;;;10487684;28;20037;-56
2022/10/20 21:57:03;;;;;;;18.25;6.45;;;;;;;;;;10488903;28;20021;-47
2022/10/20 22:02:04;;;;;;;18.10;5.82;;;;;;;;;;10489991;28;20165;-47
2022/10/20 22:07:04;;;;;;;9.75;5.68;;;;;;;;;;10491937;28;20032;-47
2022/10/20 22:17:09;;;;;;;6.13;5.13;;;;;;;;;;10448052;28;19921;-59
2022/10/20 22:22:10;;;;;;;13.50;5.53;;;;;;;;;;10431694;28;20037;-49
2022/10/20 22:27:10;;;;;;;9.45;5.53;;;;;;;;;;10449414;28;20029;-61
2022/10/20 22:32:13;;;;;;;11.55;5.15;;;;;;;;;;10431615;28;20059;-49
2022/10/20 22:37:13;;;;;;;6.90;5.20;;;;;;;;;;10449440;28;20032;-49
2022/10/20 22:42:13;;;;;;;7.50;5.43;;;;;;;;;;10449087;28;20056;-47
2022/10/20 22:47:14;;;;;;;7.95;5.90;;;;;;;;;;10449164;28;20112;-48
2022/10/20 22:52:14;;;;;;;8.30;5.65;;;;;;;;;;10448956;28;20036;-48
2022/10/20 22:57:14;;;;;;;11.55;5.40;;;;;;;;;;10449014;28;20112;-48
2022/10/20 23:02:15;;;;;;;8.43;5.17;;;;;;;;;;10449374;28;20028;-48
2022/10/20 23:07:15;;;;;;;9.43;5.35;;;;;;;;;;10448805;28;20025;-47
2022/10/20 23:12:15;;;;;;;9.85;5.72;;;;;;;;;;10448577;28;20025;-47
2022/10/20 23:17:15;;;;;;;7.80;5.00;;;;;;;;;;10448861;28;20365;-48
2022/10/20 23:22:16;;;;;;;7.60;5.38;;;;;;;;;;10448464;28;20029;-47
2022/10/20 23:27:16;;;;;;;7.22;5.03;;;;;;;;;;10509286;22;20087;-46
2022/10/20 23:32:16;;;;;;;9.60;5.28;;;;;;;;;;10452675;28;20411;-47
2022/10/20 23:37:18;;;;;;;6.75;5.13;;;;;;;;;;10448684;28;20108;-48
2022/10/20 23:42:18;;;;;;;6.03;4.93;;;;;;;;;;10455076;28;20025;-47
2022/10/20 23:47:19;;;;;;;6.95;4.90;;;;;;;;;;10455862;28;20020;-47
2022/10/20 23:52:19;;;;;;;6.53;4.90;;;;;;;;;;10456130;28;20060;-46
2022/10/20 23:57:19;;;;;;;7.60;4.88;;;;;;;;;;10455375;28;20032;-49
